This is the latest recevied weather packets stored in our database for station/object W2SBL-1. If no packets are shown the sender has not sent any weather packets the latest 10 day(s).
| Time | Temp. | Humidity | Pressure | Rain* | Wind** | Luminosity | Snow |
|---|---|---|---|---|---|---|---|
| 1777543537 | 12.22° C | 51% | 1007.3 hPa | - | - | - | - |
| 1777542636 | 11.67° C | 51% | 1007.1 hPa | - | - | - | - |
| 1777541736 | 11.67° C | 51% | 1007 hPa | - | - | - | - |
| 1777540836 | 12.22° C | 51% | 1007.2 hPa | - | - | - | - |
| 1777539936 | 11.67° C | 51% | 1007.4 hPa | - | - | - | - |
| 1777539036 | 11.67° C | 51% | 1007.3 hPa | - | - | - | - |
| 1777538136 | 11.67° C | 51% | 1007.4 hPa | - | - | - | - |
| 1777537236 | 11.67° C | 51% | 1007.6 hPa | - | - | - | - |
| 1777536336 | 11.67° C | 50% | 1007.4 hPa | - | - | - | - |
| 1777535436 | 11.67° C | 51% | 1007.5 hPa | - | - | - | - |
| 1777534536 | 11.67° C | 51% | 1007.6 hPa | - | - | - | - |
| 1777533636 | 11.67° C | 51% | 1007.8 hPa | - | - | - | - |
| 1777532736 | -1.11° C | 50% | 987.6 hPa | - | - | - | - |
| 1777531836 | 11.67° C | 51% | 1008.4 hPa | - | - | - | - |
| 1777530935 | 11.11° C | 51% | 1008.2 hPa | - | - | - | - |
| 1777530035 | 11.11° C | 51% | 1007.7 hPa | - | - | - | - |
| 1777529135 | 11.67° C | 51% | 1008.4 hPa | - | - | - | - |
| 1777528235 | 11.67° C | 51% | 1009.8 hPa | - | - | - | - |
| 1777527335 | 11.67° C | 51% | 1009.6 hPa | - | - | - | - |
| 1777526435 | 11.67° C | 51% | 1009.6 hPa | - | - | - | - |
| 1777525535 | 11.67° C | 51% | 1008.7 hPa | - | - | - | - |
| 1777524635 | 11.67° C | 51% | 1009 hPa | - | - | - | - |
| 1777523735 | 11.67° C | 50% | 1009.6 hPa | - | - | - | - |
| 1777522835 | 11.67° C | 50% | 1010.2 hPa | - | - | - | - |
| 1777521935 | 11.67° C | 50% | 1010.5 hPa | - | - | - | - |
* Rain since midnight (hover to see other rain measurements)
** Current wind speed in m/s (hover to see current wind gust speed)